Terminal Aerodrome Forecast
Issued by NWS

Home | Current Version | Previous Version | Text Only | Print | Product List | Glossary On
Versions: 1 2 3 4 5 6 7 8 9 10 11 12 13 14 15 16 17 18 19 20 21 22 23 24 25 26 27 28 29 30 31 32 33 34 35 36 37 38 39 40 41 42
000
FTUS45 KGJT 312140 AAA
TAFCNY
TAF AMD
KCNY 312140Z 3122/0118 29005KT P6SM VCSH BKN015
     FM312230 34005KT P6SM SCT020 OVC050
     FM010000 31005KT P6SM SCT050
     FM011200 VRB03KT P6SM VCFG SCT050=

USA.gov is the U.S. government's official web portal to all federal, state and local government web resources and services.